createdAt,value
2018-09-23T00:00:31.620Z,96898.97
2018-09-23T00:03:01.487Z,96896.27
2018-09-23T00:05:31.576Z,96889.17
2018-09-23T00:08:01.495Z,96883.28
2018-09-23T00:10:31.413Z,96877.72
2018-09-23T00:13:01.584Z,96871.52
2018-09-23T00:15:31.573Z,96870.48
2018-09-23T00:18:01.462Z,96865.45
2018-09-23T00:20:31.475Z,96859.09
2018-09-23T00:23:01.839Z,96855.12
2018-09-23T00:25:31.514Z,96853.23
2018-09-23T00:28:01.451Z,96839.28
2018-09-23T00:30:31.543Z,96844.34
2018-09-23T00:33:01.479Z,96845.33
2018-09-23T00:35:31.566Z,96841.50
2018-09-23T00:38:01.591Z,96828.42
2018-09-23T00:40:31.507Z,96826.92
2018-09-23T00:43:01.535Z,96833.66
2018-09-23T00:45:31.546Z,96829.23
2018-09-23T00:48:01.615Z,96835.82
2018-09-23T00:50:31.509Z,96821.75
2018-09-23T00:53:01.566Z,96817.82
2018-09-23T00:55:31.616Z,96812.41
2018-09-23T00:58:01.527Z,96810.09
2018-09-23T01:00:31.662Z,96803.55
2018-09-23T01:03:01.554Z,96796.33
2018-09-23T01:05:31.583Z,96796.78
2018-09-23T01:08:01.780Z,96795.36
2018-09-23T01:10:31.623Z,96801.67
2018-09-23T01:13:01.623Z,96792.98
2018-09-23T01:15:31.699Z,96789.92
2018-09-23T01:18:01.664Z,96776.39
2018-09-23T01:20:31.723Z,96784.70
2018-09-23T01:23:01.931Z,96786.47
2018-09-23T01:25:31.727Z,96783.64
2018-09-23T01:28:01.628Z,96781.52
2018-09-23T01:30:31.610Z,96778.63
2018-09-23T01:33:01.659Z,96775.34
2018-09-23T01:35:31.690Z,96757.45
2018-09-23T01:38:01.639Z,96752.38
2018-09-23T01:40:31.719Z,96751.70
2018-09-23T01:43:01.650Z,96749.14
2018-09-23T01:45:31.756Z,96740.73
2018-09-23T01:48:01.663Z,96735.02
2018-09-23T01:50:31.711Z,96725.23
2018-09-23T01:53:01.708Z,96720.75
2018-09-23T01:55:31.818Z,96718.20
2018-09-23T01:58:01.730Z,96721.13
2018-09-23T02:00:31.758Z,96713.59
2018-09-23T02:03:01.728Z,96702.63
2018-09-23T02:05:31.794Z,96704.95
2018-09-23T02:08:01.815Z,96704.58
2018-09-23T02:10:31.799Z,96695.17
2018-09-23T02:13:01.735Z,96687.09
2018-09-23T02:15:31.755Z,96685.84
2018-09-23T02:18:01.766Z,96683.75
2018-09-23T02:20:31.777Z,96675.75
2018-09-23T02:23:01.760Z,96664.56
2018-09-23T02:25:31.834Z,96653.13
2018-09-23T02:28:01.835Z,96655.73
2018-09-23T02:30:31.831Z,96650.25
2018-09-23T02:33:01.767Z,96639.60
2018-09-23T02:35:31.792Z,96631.98
2018-09-23T02:38:01.798Z,96634.81
2018-09-23T02:40:31.862Z,96627.49
2018-09-23T02:43:01.766Z,96624.80
2018-09-23T02:45:31.871Z,96624.28
2018-09-23T02:48:01.891Z,96620.53
2018-09-23T02:50:31.902Z,96611.26
2018-09-23T02:53:01.953Z,96608.34
2018-09-23T02:55:31.811Z,96597.88
2018-09-23T02:58:01.947Z,96597.72
2018-09-23T03:00:31.850Z,96588.05
2018-09-23T03:03:01.994Z,96588.80
2018-09-23T03:05:31.837Z,96579.05
2018-09-23T03:08:01.920Z,96572.50
2018-09-23T03:10:31.946Z,96572.85
2018-09-23T03:13:01.935Z,96567.12
2018-09-23T03:15:31.960Z,96584.59
2018-09-23T03:18:01.910Z,96567.20
2018-09-23T03:20:31.899Z,96560.69
2018-09-23T03:23:01.914Z,96560.48
2018-09-23T03:25:32.006Z,96557.45
2018-09-23T03:28:01.900Z,96550.50
2018-09-23T03:30:31.926Z,96543.91
2018-09-23T03:33:01.984Z,96537.25
2018-09-23T03:35:32.001Z,96539.34
2018-09-23T03:38:01.918Z,96535.42
2018-09-23T03:40:31.938Z,96516.27
2018-09-23T03:43:01.953Z,96517.59
2018-09-23T03:45:31.987Z,96517.87
2018-09-23T03:48:02.002Z,96511.36
2018-09-23T03:50:32.001Z,96500.97
2018-09-23T03:53:02.030Z,96498.00
2018-09-23T03:55:32.026Z,96496.09
2018-09-23T03:58:02.103Z,96494.53
2018-09-23T04:00:31.955Z,96480.80
2018-09-23T04:03:02.019Z,96481.08
2018-09-23T04:05:32.006Z,96471.83
2018-09-23T04:08:02.082Z,96480.09
2018-09-23T04:10:32.155Z,96470.02
2018-09-23T04:13:02.095Z,96473.87
2018-09-23T04:15:32.109Z,96468.45
2018-09-23T04:18:02.002Z,96472.27
2018-09-23T04:20:32.311Z,96467.27
2018-09-23T04:23:02.182Z,96459.89
2018-09-23T04:25:32.099Z,96462.67
2018-09-23T04:28:02.084Z,96463.63
2018-09-23T04:30:32.164Z,96457.64
2018-09-23T04:33:02.067Z,96459.98
2018-09-23T04:35:33.482Z,96459.88
2018-09-23T04:38:02.635Z,96451.83
2018-09-23T04:40:32.035Z,96449.22
2018-09-23T04:43:02.398Z,96456.24
2018-09-23T04:45:32.132Z,96457.16
2018-09-23T04:48:02.098Z,96450.84
2018-09-23T04:50:32.110Z,96451.51
2018-09-23T04:53:02.110Z,96450.94
2018-09-23T04:55:32.151Z,96444.88
2018-09-23T04:58:02.180Z,96450.28
2018-09-23T05:00:32.099Z,96446.57
2018-09-23T05:03:02.114Z,96450.25
2018-09-23T05:05:32.207Z,96447.59
2018-09-23T05:08:02.211Z,96446.47
2018-09-23T05:10:32.149Z,96438.12
2018-09-23T05:13:02.167Z,96440.90
2018-09-23T05:15:32.179Z,96440.00
2018-09-23T05:18:02.307Z,96438.36
2018-09-23T05:20:32.222Z,96439.12
2018-09-23T05:23:02.263Z,96437.06
2018-09-23T05:25:32.335Z,96442.45
2018-09-23T05:28:02.209Z,96438.53
2018-09-23T05:30:32.198Z,96442.73
2018-09-23T05:33:02.266Z,96437.62
2018-09-23T05:35:32.332Z,96438.12
2018-09-23T05:38:02.697Z,96446.25
2018-09-23T05:40:32.307Z,96437.83
2018-09-23T05:43:02.343Z,96430.67
2018-09-23T05:45:32.338Z,96434.98
2018-09-23T05:48:02.342Z,96427.02
2018-09-23T05:50:32.246Z,96429.73
2018-09-23T05:53:02.516Z,96430.81
2018-09-23T05:55:31.627Z,96422.84
2018-09-23T05:58:00.771Z,96421.78
2018-09-23T06:00:32.232Z,96428.20
2018-09-23T06:03:01.444Z,96430.56
2018-09-23T06:05:30.531Z,96423.58
2018-09-23T06:07:59.687Z,96438.07
2018-09-23T06:10:28.941Z,96437.03
2018-09-23T06:12:58.115Z,96431.89
2018-09-23T06:15:27.247Z,96423.98
2018-09-23T06:17:56.399Z,96419.53
2018-09-23T06:20:25.557Z,96417.42
2018-09-23T06:22:54.715Z,96418.22
2018-09-23T06:25:23.983Z,96416.36
2018-09-23T06:27:52.994Z,96415.20
2018-09-23T06:30:22.143Z,96421.26
2018-09-23T06:32:51.300Z,96414.49
2018-09-23T06:35:20.455Z,96415.23
2018-09-23T06:37:49.606Z,96403.42
2018-09-23T06:40:18.751Z,96414.27
2018-09-23T06:42:47.943Z,96409.66
2018-09-23T06:45:17.494Z,96405.64
2018-09-23T06:47:46.643Z,96406.48
2018-09-23T06:50:15.981Z,96409.66
2018-09-23T06:52:46.436Z,96419.06
2018-09-23T06:55:15.579Z,96416.33
2018-09-23T06:57:44.876Z,96420.40
2018-09-23T07:00:14.118Z,96423.34
2018-09-23T07:02:43.322Z,96426.08
2018-09-23T07:05:12.775Z,96421.55
2018-09-23T07:07:42.048Z,96421.39
2018-09-23T07:10:11.220Z,96425.17
2018-09-23T07:12:40.385Z,96420.08
2018-09-23T07:15:09.867Z,96420.80
2018-09-23T07:17:39.006Z,96413.19
2018-09-23T07:20:08.171Z,96412.42
2018-09-23T07:22:37.314Z,96414.82
2018-09-23T07:25:06.511Z,96412.20
2018-09-23T07:27:35.666Z,96411.73
2018-09-23T07:30:05.410Z,96410.48
2018-09-23T07:32:34.522Z,96415.05
2018-09-23T07:35:03.658Z,96415.88
2018-09-23T07:37:34.094Z,96405.23
2018-09-23T07:40:03.454Z,96415.38
2018-09-23T07:42:33.317Z,96420.72
2018-09-23T07:45:03.442Z,96421.23
2018-09-23T07:47:33.227Z,96418.10
2018-09-23T07:50:03.383Z,96421.55
2018-09-23T07:52:33.434Z,96423.12
2018-09-23T07:55:03.399Z,96423.38
2018-09-23T07:57:33.359Z,96429.55
2018-09-23T08:00:03.497Z,96424.98
2018-09-23T08:02:33.251Z,96426.63
2018-09-23T08:05:03.264Z,96418.89
2018-09-23T08:07:33.519Z,96412.27
2018-09-23T08:10:03.512Z,96415.40
2018-09-23T08:12:33.378Z,96414.89
2018-09-23T08:15:03.722Z,96415.75
2018-09-23T08:17:33.296Z,96418.97
2018-09-23T08:20:03.534Z,96417.12
2018-09-23T08:22:33.605Z,96410.16
2018-09-23T08:25:03.544Z,96415.78
2018-09-23T08:27:33.429Z,96421.38
2018-09-23T08:30:02.634Z,96428.56
2018-09-23T08:32:38.267Z,96426.16
2018-09-23T08:35:08.653Z,96424.05
2018-09-23T08:37:38.399Z,96413.41
2018-09-23T08:40:08.338Z,96419.81
2018-09-23T08:42:38.438Z,96426.42
2018-09-23T08:45:08.642Z,96429.64
2018-09-23T08:47:38.337Z,96422.97
2018-09-23T08:50:08.359Z,96418.12
2018-09-23T08:52:38.400Z,96423.18
2018-09-23T08:55:08.375Z,96427.19
2018-09-23T08:57:38.468Z,96416.27
2018-09-23T09:00:08.451Z,96414.16
2018-09-23T09:02:38.368Z,96412.05
2018-09-23T09:05:08.614Z,96404.30
2018-09-23T09:07:38.395Z,96409.38
2018-09-23T09:10:08.646Z,96412.05
2018-09-23T09:12:38.444Z,96403.03
2018-09-23T09:15:08.827Z,96393.42
2018-09-23T09:17:38.455Z,96395.04
2018-09-23T09:20:08.833Z,96391.81
2018-09-23T09:22:38.507Z,96382.48
2018-09-23T09:25:08.474Z,96383.83
2018-09-23T09:27:38.416Z,96380.11
2018-09-23T09:30:08.815Z,96379.03
2018-09-23T09:32:38.523Z,96379.30
2018-09-23T09:35:08.440Z,96372.62
2018-09-23T09:37:38.484Z,96370.77
2018-09-23T09:40:08.878Z,96367.56
2018-09-23T09:42:38.521Z,96370.73
2018-09-23T09:45:08.463Z,96364.05
2018-09-23T09:47:38.550Z,96365.11
2018-09-23T09:50:08.957Z,96365.37
2018-09-23T09:52:38.483Z,96355.48
2018-09-23T09:55:09.720Z,96356.81
2018-09-23T09:57:38.823Z,96352.78
2018-09-23T10:00:09.245Z,96357.61
2018-09-23T10:02:38.531Z,96353.61
2018-09-23T10:05:08.535Z,96356.02
2018-09-23T10:07:38.751Z,96345.59
2018-09-23T10:10:08.843Z,96331.16
2018-09-23T10:12:38.536Z,96338.06
2018-09-23T10:15:08.936Z,96340.44
2018-09-23T10:17:38.617Z,96335.37
2018-09-23T10:20:08.568Z,96346.22
2018-09-23T10:22:38.561Z,96325.08
2018-09-23T10:25:08.591Z,96331.77
2018-09-23T10:27:38.703Z,96327.77
2018-09-23T10:35:12.751Z,96329.19
2018-09-23T10:37:41.911Z,96329.96
2018-09-23T10:40:11.083Z,96311.25
2018-09-23T10:42:40.323Z,96317.92
2018-09-23T10:45:09.615Z,96317.03
2018-09-23T10:47:38.836Z,96303.73
2018-09-23T10:50:09.007Z,96307.91
2018-09-23T10:52:38.775Z,96295.25
2018-09-23T10:55:09.104Z,96300.02
2018-09-23T10:57:38.671Z,96282.52
2018-09-23T11:00:08.799Z,96274.16
2018-09-23T11:02:38.823Z,96281.66
2018-09-23T11:05:09.052Z,96262.02
2018-09-23T11:07:38.686Z,96268.05
2018-09-23T11:10:08.883Z,96258.48
2018-09-23T11:12:38.772Z,96262.77
2018-09-23T11:15:09.539Z,96262.80
2018-09-23T11:17:38.777Z,96267.94
2018-09-23T11:20:09.027Z,96254.70
2018-09-23T11:22:38.774Z,96256.58
2018-09-23T11:25:09.298Z,96250.69
2018-09-23T11:27:38.816Z,96234.41
2018-09-23T11:35:14.190Z,96231.61
2018-09-23T11:37:43.374Z,96232.30
2018-09-23T11:40:12.773Z,96228.34
2018-09-23T11:42:41.929Z,96225.47
2018-09-23T11:45:11.151Z,96209.69
2018-09-23T11:47:40.374Z,96225.06
2018-09-23T11:50:09.519Z,96211.52
2018-09-23T11:52:38.905Z,96199.28
2018-09-23T11:55:08.950Z,96208.88
2018-09-23T11:57:38.922Z,96209.30
2018-09-23T12:05:20.407Z,96198.42
2018-09-23T12:07:49.554Z,96188.16
2018-09-23T12:10:18.726Z,96183.36
2018-09-23T12:12:47.854Z,96168.63
2018-09-23T12:15:16.991Z,96159.84
2018-09-23T12:17:46.291Z,96141.18
2018-09-23T12:20:15.466Z,96143.25
2018-09-23T12:22:44.731Z,96120.16
2018-09-23T12:25:13.993Z,96126.20
2018-09-23T12:27:43.261Z,96124.09
2018-09-23T12:30:12.537Z,96094.70
2018-09-23T12:32:41.678Z,96105.52
2018-09-23T12:35:10.911Z,96101.84
2018-09-23T12:37:40.137Z,96087.66
2018-09-23T12:40:09.277Z,96074.66
2018-09-23T12:42:38.935Z,96066.31
2018-09-23T12:45:09.534Z,96057.73
2018-09-23T12:47:38.949Z,96040.87
2018-09-23T12:50:09.155Z,96039.23
2018-09-23T12:52:38.988Z,96031.59
2018-09-23T12:55:09.303Z,96036.25
2018-09-23T12:57:39.017Z,96023.94
2018-09-23T13:00:09.200Z,96025.00
2018-09-23T13:02:39.369Z,96022.94
2018-09-23T13:05:09.274Z,96026.26
2018-09-23T13:07:39.280Z,96013.55
2018-09-23T13:10:09.307Z,96000.08
2018-09-23T13:12:39.387Z,95991.57
2018-09-23T13:15:09.122Z,95985.09
2018-09-23T13:17:39.428Z,95987.89
2018-09-23T13:20:09.571Z,95971.96
2018-09-23T13:22:39.591Z,95967.42
2018-09-23T13:25:09.530Z,95963.52
2018-09-23T13:27:39.414Z,95952.56
2018-09-23T13:30:09.465Z,95945.59
2018-09-23T13:32:39.552Z,95943.60
2018-09-23T13:35:09.431Z,95929.61
2018-09-23T13:37:39.614Z,95925.00
2018-09-23T13:40:09.520Z,95900.12
2018-09-23T13:42:39.715Z,95905.98
2018-09-23T13:45:09.792Z,95898.72
2018-09-23T13:47:39.516Z,95908.16
2018-09-23T13:50:09.496Z,95905.98
2018-09-23T13:52:39.547Z,95915.56
2018-09-23T13:55:09.576Z,95894.00
2018-09-23T13:57:39.659Z,95871.97
2018-09-23T14:00:09.994Z,95871.22
2018-09-23T14:02:39.139Z,95864.66
2018-09-23T14:05:08.393Z,95864.72
2018-09-23T14:07:37.505Z,95879.63
2018-09-23T14:10:06.666Z,95869.48
2018-09-23T14:12:35.879Z,95870.29
2018-09-23T14:15:05.090Z,95863.77
2018-09-23T14:17:34.451Z,95871.75
2018-09-23T14:20:03.691Z,95864.69
2018-09-23T14:22:32.855Z,95853.54
2018-09-23T14:25:02.048Z,95842.59
2018-09-23T14:27:31.342Z,95836.44
2018-09-23T14:30:00.577Z,95827.88
2018-09-23T14:32:29.772Z,95840.09
2018-09-23T14:34:58.926Z,95836.94
2018-09-23T14:37:28.162Z,95823.11
2018-09-23T14:39:57.323Z,95822.47
2018-09-23T14:42:26.499Z,95814.13
2018-09-23T14:44:55.602Z,95829.05
2018-09-23T14:47:24.854Z,95793.70
2018-09-23T14:49:53.985Z,95785.30
2018-09-23T14:52:23.239Z,95783.66
2018-09-23T14:54:52.445Z,95769.03
2018-09-23T14:57:21.558Z,95757.67
2018-09-23T14:59:54.193Z,95744.36
2018-09-23T15:02:19.919Z,95765.77
2018-09-23T15:04:49.063Z,95762.91
2018-09-23T15:07:18.311Z,95741.75
2018-09-23T15:09:47.458Z,95763.08
2018-09-23T15:12:16.760Z,95752.48
2018-09-23T15:14:45.919Z,95764.08
2018-09-23T15:17:15.067Z,95741.24
2018-09-23T15:19:44.203Z,95743.32
2018-09-23T15:22:13.379Z,95736.02
2018-09-23T15:24:42.623Z,95742.88
2018-09-23T15:27:11.792Z,95730.08
2018-09-23T15:29:40.926Z,95720.85
2018-09-23T15:32:10.361Z,95729.91
2018-09-23T15:34:40.354Z,95710.75
2018-09-23T15:37:10.455Z,95704.22
2018-09-23T15:39:40.291Z,95705.42
2018-09-23T15:42:10.353Z,95698.72
2018-09-23T15:44:40.311Z,95699.39
2018-09-23T15:47:10.330Z,95692.45
2018-09-23T15:49:40.415Z,95702.34
2018-09-23T15:52:10.653Z,95694.77
2018-09-23T15:54:40.391Z,95695.37
2018-09-23T15:57:10.443Z,95695.33
2018-09-23T15:59:40.466Z,95713.91
2018-09-23T16:02:10.399Z,95716.09
2018-09-23T16:04:40.627Z,95724.02
2018-09-23T16:07:13.680Z,95721.34
2018-09-23T16:09:42.828Z,95710.13
2018-09-23T16:12:11.979Z,95717.80
2018-09-23T16:14:41.318Z,95738.48
2018-09-23T16:17:10.487Z,95759.23
2018-09-23T16:19:40.470Z,95743.16
2018-09-23T16:22:10.459Z,95733.95
2018-09-23T16:24:40.417Z,95734.28
2018-09-23T16:27:10.467Z,95733.88
2018-09-23T16:29:40.433Z,95723.86
2018-09-23T16:32:10.545Z,95721.41
2018-09-23T16:34:40.531Z,95729.17
2018-09-23T16:37:10.486Z,95748.50
2018-09-23T16:39:41.032Z,95784.21
2018-09-23T16:42:10.682Z,95910.59
2018-09-23T16:44:40.702Z,95856.73
2018-09-23T16:47:10.568Z,95830.58
2018-09-23T16:49:40.671Z,95887.53
2018-09-23T16:52:10.632Z,95946.73
2018-09-23T16:54:40.711Z,95868.45
2018-09-23T16:57:10.662Z,95862.05
2018-09-23T16:59:40.635Z,95882.68
2018-09-23T17:02:10.697Z,95888.95
2018-09-23T17:04:40.853Z,95894.94
2018-09-23T17:07:10.673Z,95881.50
2018-09-23T17:09:40.620Z,95882.83
2018-09-23T17:12:10.771Z,95942.59
2018-09-23T17:14:40.684Z,95911.48
2018-09-23T17:17:10.643Z,95861.48
2018-09-23T17:19:41.582Z,95899.58
2018-09-23T17:22:11.133Z,95931.39
2018-09-23T17:24:40.698Z,95950.09
2018-09-23T17:27:10.758Z,95979.92
2018-09-23T17:29:40.746Z,95989.30
2018-09-23T17:32:10.696Z,95992.77
2018-09-23T17:34:40.776Z,95999.98
2018-09-23T17:37:10.798Z,95997.61
2018-09-23T17:39:40.815Z,95997.64
2018-09-23T17:42:10.778Z,95972.90
2018-09-23T17:44:40.735Z,96005.37
2018-09-23T17:47:10.743Z,96030.96
2018-09-23T17:49:40.766Z,96039.20
2018-09-23T17:52:10.803Z,96032.80
2018-09-23T17:54:40.814Z,96023.22
2018-09-23T17:57:10.933Z,96013.64
2018-09-23T17:59:40.843Z,96022.16
2018-09-23T18:02:10.860Z,96033.89
2018-09-23T18:04:40.951Z,96002.73
2018-09-23T18:07:10.891Z,96005.41
2018-09-23T18:09:40.878Z,95988.64
2018-09-23T18:12:10.789Z,95980.38
2018-09-23T18:14:40.849Z,95972.40
2018-09-23T18:17:10.840Z,95981.98
2018-09-23T18:19:40.923Z,95996.09
2018-09-23T18:22:13.796Z,96023.48
2018-09-23T18:24:42.983Z,96073.50
2018-09-23T18:27:12.519Z,96108.45
2018-09-23T18:29:41.857Z,96155.77
2018-09-23T18:32:10.976Z,96210.54
2018-09-23T18:34:40.877Z,96260.93
2018-09-23T18:37:10.962Z,96278.41
2018-09-23T18:39:41.004Z,96312.08
2018-09-23T18:42:10.930Z,96320.86
2018-09-23T18:44:41.229Z,96332.75
2018-09-23T18:47:10.946Z,96344.72
2018-09-23T18:49:40.922Z,96358.77
2018-09-23T18:52:11.079Z,96363.34
2018-09-23T18:54:46.246Z,96409.33
2018-09-23T18:57:15.498Z,96398.05
2018-09-23T18:59:44.647Z,96403.14
2018-09-23T19:02:13.870Z,96399.09
2018-09-23T19:04:43.078Z,96391.62
2018-09-23T19:07:12.271Z,96388.47
2018-09-23T19:09:41.495Z,96439.16
2018-09-23T19:12:11.435Z,96453.65
2018-09-23T19:14:40.994Z,96459.27
2018-09-23T19:17:11.367Z,96472.84
2018-09-23T19:19:46.519Z,96474.53
2018-09-23T19:22:21.010Z,96474.25
2018-09-23T19:24:50.211Z,96477.64
2018-09-23T19:27:19.353Z,96506.48
2018-09-23T19:29:48.592Z,96528.67
2018-09-23T19:32:17.842Z,96541.17
2018-09-23T19:34:46.982Z,96555.09
2018-09-23T19:37:16.179Z,96592.45
2018-09-23T19:39:45.342Z,96627.44
2018-09-23T19:42:14.760Z,96661.35
2018-09-23T19:44:43.982Z,96650.28
2018-09-23T19:47:13.158Z,96642.94
2018-09-23T19:49:42.292Z,96662.77
2018-09-23T19:52:11.432Z,96645.96
2018-09-23T19:54:41.401Z,96668.42
2018-09-23T19:57:11.364Z,96682.47
2018-09-23T19:59:41.354Z,96689.66
2018-09-23T20:02:11.447Z,96686.62
2018-09-23T20:04:41.650Z,96664.68
2018-09-23T20:07:11.421Z,96671.35
2018-09-23T20:09:41.538Z,96682.39
2018-09-23T20:12:11.530Z,96665.83
2018-09-23T20:14:41.620Z,96656.69
2018-09-23T20:17:11.554Z,96671.30
2018-09-23T20:19:41.395Z,96682.28
2018-09-23T20:22:12.281Z,96707.59
2018-09-23T20:24:41.834Z,96726.34
2018-09-23T20:27:11.518Z,96738.61
2018-09-23T20:29:41.429Z,96756.35
2018-09-23T20:32:11.583Z,96762.66
2018-09-23T20:34:41.634Z,96754.15
2018-09-23T20:37:11.531Z,96768.41
2018-09-23T20:39:41.430Z,96767.58
2018-09-23T20:42:11.457Z,96788.09
2018-09-23T20:44:41.539Z,96814.52
2018-09-23T20:47:11.495Z,96852.97
2018-09-23T20:49:41.764Z,96868.39
2018-09-23T20:52:11.535Z,96880.20
2018-09-23T20:54:41.586Z,96888.91
2018-09-23T20:57:11.724Z,96888.19
2018-09-23T20:59:41.492Z,96895.38
2018-09-23T21:02:11.524Z,96895.52
2018-09-23T21:04:41.754Z,96892.97
2018-09-23T21:07:11.670Z,96889.23
2018-09-23T21:09:41.471Z,96886.71
2018-09-23T21:12:12.577Z,96887.01
2018-09-23T21:14:41.714Z,96875.62
2018-09-23T21:17:11.665Z,96878.94
2018-09-23T21:19:41.597Z,96892.45
2018-09-23T21:22:11.627Z,96897.13
2018-09-23T21:24:41.545Z,96895.81
2018-09-23T21:27:42.279Z,96909.42
2018-09-23T21:30:11.598Z,96920.39
2018-09-23T21:32:41.634Z,96926.78
2018-09-23T21:35:11.606Z,96942.20
2018-09-23T21:37:41.739Z,96946.95
2018-09-23T21:40:11.626Z,96953.56
2018-09-23T21:42:41.665Z,96947.92
2018-09-23T21:45:11.586Z,96955.41
2018-09-23T21:47:41.560Z,96971.38
2018-09-23T21:50:11.660Z,96973.99
2018-09-23T21:52:41.611Z,96983.98
2018-09-23T21:55:11.630Z,96991.57
2018-09-23T21:57:41.659Z,97004.31
2018-09-23T22:00:11.725Z,97010.28
2018-09-23T22:02:41.714Z,97017.94
2018-09-23T22:05:11.766Z,97024.41
2018-09-23T22:07:41.625Z,97035.19
2018-09-23T22:10:11.628Z,97029.11
2018-09-23T22:12:41.719Z,97041.98
2018-09-23T22:15:17.854Z,97044.10
2018-09-23T22:17:47.018Z,97054.05
2018-09-23T22:20:16.155Z,97055.49
2018-09-23T22:22:45.385Z,97060.74
2018-09-23T22:25:14.521Z,97074.12
2018-09-23T22:27:43.751Z,97084.61
2018-09-23T22:30:12.967Z,97096.81
2018-09-23T22:32:42.051Z,97103.64
2018-09-23T22:35:11.757Z,97111.11
2018-09-23T22:37:41.739Z,97119.75
2018-09-23T22:40:11.688Z,97128.37
2018-09-23T22:42:41.761Z,97143.73
2018-09-23T22:45:11.770Z,97155.54
2018-09-23T22:47:41.726Z,97157.94
2018-09-23T22:50:11.719Z,97168.84
2018-09-23T22:52:41.854Z,97178.41
2018-09-23T22:55:11.732Z,97187.92
2018-09-23T22:57:41.779Z,97196.05
2018-09-23T23:00:11.729Z,97204.43
2018-09-23T23:02:41.766Z,97213.44
2018-09-23T23:05:11.814Z,97233.47
2018-09-23T23:07:41.843Z,97238.88
2018-09-23T23:10:11.855Z,97256.67
2018-09-23T23:12:42.059Z,97272.74
2018-09-23T23:15:11.795Z,97271.91
2018-09-23T23:17:41.899Z,97282.28
2018-09-23T23:20:11.811Z,97296.11
2018-09-23T23:22:40.962Z,97305.55
2018-09-23T23:25:10.091Z,97310.72
2018-09-23T23:27:39.375Z,97320.80
2018-09-23T23:30:08.526Z,97324.47
2018-09-23T23:32:37.761Z,97339.80
2018-09-23T23:35:06.922Z,97350.45
2018-09-23T23:37:36.064Z,97350.88
2018-09-23T23:40:06.385Z,97360.62
2018-09-23T23:42:35.519Z,97365.71
2018-09-23T23:45:04.711Z,97377.99
2018-09-23T23:47:33.866Z,97385.02
2018-09-23T23:50:03.023Z,97391.39
2018-09-23T23:52:32.156Z,97400.94
2018-09-23T23:55:01.322Z,97404.90
2018-09-23T23:57:30.455Z,97419.11
2018-09-23T23:59:59.691Z,97421.77
